sensor_id;sensor_type;location;lat;lon;timestamp;P1;durP1;ratioP1;P2;durP2;ratioP2
12780;SDS011;6454;43.304;24.344;2023-04-06T00:00:09;5.23;;;4.73;;
12780;SDS011;6454;43.304;24.344;2023-04-06T00:02:37;4.63;;;4.13;;
12780;SDS011;6454;43.304;24.344;2023-04-06T00:05:05;5.13;;;4.63;;
12780;SDS011;6454;43.304;24.344;2023-04-06T00:07:33;5.30;;;4.80;;
12780;SDS011;6454;43.304;24.344;2023-04-06T00:10:02;5.40;;;4.90;;
12780;SDS011;6454;43.304;24.344;2023-04-06T00:12:30;5.47;;;4.97;;
12780;SDS011;6454;43.304;24.344;2023-04-06T00:14:56;4.80;;;4.40;;
12780;SDS011;6454;43.304;24.344;2023-04-06T00:17:23;5.00;;;4.50;;
12780;SDS011;6454;43.304;24.344;2023-04-06T00:19:51;4.77;;;4.27;;
12780;SDS011;6454;43.304;24.344;2023-04-06T00:22:18;4.43;;;4.03;;
12780;SDS011;6454;43.304;24.344;2023-04-06T00:24:45;4.50;;;4.10;;
12780;SDS011;6454;43.304;24.344;2023-04-06T00:27:13;4.70;;;4.30;;
12780;SDS011;6454;43.304;24.344;2023-04-06T00:29:40;4.77;;;4.37;;
12780;SDS011;6454;43.304;24.344;2023-04-06T00:32:07;4.37;;;3.97;;
12780;SDS011;6454;43.304;24.344;2023-04-06T00:34:34;5.20;;;4.43;;
12780;SDS011;6454;43.304;24.344;2023-04-06T00:37:01;4.40;;;4.00;;
12780;SDS011;6454;43.304;24.344;2023-04-06T00:39:28;5.00;;;4.50;;
12780;SDS011;6454;43.304;24.344;2023-04-06T00:41:55;5.70;;;5.07;;
12780;SDS011;6454;43.304;24.344;2023-04-06T00:44:24;5.30;;;4.80;;
12780;SDS011;6454;43.304;24.344;2023-04-06T00:46:51;5.83;;;5.33;;
12780;SDS011;6454;43.304;24.344;2023-04-06T00:49:18;6.57;;;5.87;;
12780;SDS011;6454;43.304;24.344;2023-04-06T00:51:45;6.70;;;6.10;;
12780;SDS011;6454;43.304;24.344;2023-04-06T00:54:12;7.23;;;6.53;;
12780;SDS011;6454;43.304;24.344;2023-04-06T00:56:39;7.47;;;6.67;;
12780;SDS011;6454;43.304;24.344;2023-04-06T00:59:08;7.00;;;6.40;;
12780;SDS011;6454;43.304;24.344;2023-04-06T01:01:37;7.60;;;6.80;;
12780;SDS011;6454;43.304;24.344;2023-04-06T01:04:04;7.20;;;6.47;;
12780;SDS011;6454;43.304;24.344;2023-04-06T01:06:31;7.03;;;6.33;;
12780;SDS011;6454;43.304;24.344;2023-04-06T01:08:58;7.30;;;6.57;;
12780;SDS011;6454;43.304;24.344;2023-04-06T01:11:25;7.27;;;6.57;;
12780;SDS011;6454;43.304;24.344;2023-04-06T01:13:52;6.87;;;6.17;;
12780;SDS011;6454;43.304;24.344;2023-04-06T01:16:19;6.50;;;5.83;;
12780;SDS011;6454;43.304;24.344;2023-04-06T01:18:48;7.43;;;6.63;;
12780;SDS011;6454;43.304;24.344;2023-04-06T01:21:15;7.83;;;7.03;;
12780;SDS011;6454;43.304;24.344;2023-04-06T01:23:44;7.67;;;6.83;;
12780;SDS011;6454;43.304;24.344;2023-04-06T01:26:11;7.77;;;6.70;;
12780;SDS011;6454;43.304;24.344;2023-04-06T01:28:39;8.83;;;6.97;;
12780;SDS011;6454;43.304;24.344;2023-04-06T01:31:06;7.07;;;6.37;;
12780;SDS011;6454;43.304;24.344;2023-04-06T01:33:34;6.63;;;6.00;;
12780;SDS011;6454;43.304;24.344;2023-04-06T01:36:01;6.90;;;6.20;;
12780;SDS011;6454;43.304;24.344;2023-04-06T01:38:28;8.30;;;6.10;;
12780;SDS011;6454;43.304;24.344;2023-04-06T01:40:57;9.00;;;6.00;;
12780;SDS011;6454;43.304;24.344;2023-04-06T01:43:23;6.97;;;5.50;;
12780;SDS011;6454;43.304;24.344;2023-04-06T01:45:50;6.20;;;5.50;;
12780;SDS011;6454;43.304;24.344;2023-04-06T01:48:18;5.97;;;5.43;;
12780;SDS011;6454;43.304;24.344;2023-04-06T01:50:45;6.43;;;5.83;;
12780;SDS011;6454;43.304;24.344;2023-04-06T01:53:12;6.10;;;5.50;;
12780;SDS011;6454;43.304;24.344;2023-04-06T01:55:39;6.50;;;5.90;;
12780;SDS011;6454;43.304;24.344;2023-04-06T01:58:08;5.87;;;5.30;;
12780;SDS011;6454;43.304;24.344;2023-04-06T02:00:34;6.00;;;5.50;;
12780;SDS011;6454;43.304;24.344;2023-04-06T02:03:01;6.33;;;5.73;;
12780;SDS011;6454;43.304;24.344;2023-04-06T02:05:29;6.73;;;6.03;;
12780;SDS011;6454;43.304;24.344;2023-04-06T02:07:58;6.37;;;5.73;;
12780;SDS011;6454;43.304;24.344;2023-04-06T02:10:25;6.80;;;6.07;;
12780;SDS011;6454;43.304;24.344;2023-04-06T02:12:52;6.97;;;6.30;;
12780;SDS011;6454;43.304;24.344;2023-04-06T02:15:20;7.17;;;6.47;;
12780;SDS011;6454;43.304;24.344;2023-04-06T02:17:47;6.80;;;6.10;;
12780;SDS011;6454;43.304;24.344;2023-04-06T02:20:14;6.60;;;5.90;;
12780;SDS011;6454;43.304;24.344;2023-04-06T02:22:41;7.10;;;6.27;;
12780;SDS011;6454;43.304;24.344;2023-04-06T02:25:08;6.80;;;6.07;;
12780;SDS011;6454;43.304;24.344;2023-04-06T02:27:35;6.50;;;5.77;;
12780;SDS011;6454;43.304;24.344;2023-04-06T02:30:02;7.90;;;6.60;;
12780;SDS011;6454;43.304;24.344;2023-04-06T02:32:31;6.20;;;5.60;;
12780;SDS011;6454;43.304;24.344;2023-04-06T02:34:58;7.90;;;6.57;;
12780;SDS011;6454;43.304;24.344;2023-04-06T02:37:25;6.20;;;5.60;;
12780;SDS011;6454;43.304;24.344;2023-04-06T02:39:52;8.37;;;5.90;;
12780;SDS011;6454;43.304;24.344;2023-04-06T02:42:19;6.50;;;5.83;;
12780;SDS011;6454;43.304;24.344;2023-04-06T02:44:45;6.63;;;5.90;;
12780;SDS011;6454;43.304;24.344;2023-04-06T02:47:12;6.10;;;5.60;;
12780;SDS011;6454;43.304;24.344;2023-04-06T02:49:41;6.70;;;6.00;;
12780;SDS011;6454;43.304;24.344;2023-04-06T02:52:08;6.93;;;6.23;;
12780;SDS011;6454;43.304;24.344;2023-04-06T02:54:35;6.27;;;5.67;;
12780;SDS011;6454;43.304;24.344;2023-04-06T02:57:02;5.90;;;5.37;;
12780;SDS011;6454;43.304;24.344;2023-04-06T02:59:29;5.27;;;4.77;;
12780;SDS011;6454;43.304;24.344;2023-04-06T03:01:55;5.87;;;5.37;;
12780;SDS011;6454;43.304;24.344;2023-04-06T03:04:22;6.07;;;5.47;;
12780;SDS011;6454;43.304;24.344;2023-04-06T03:06:53;6.07;;;5.30;;
12780;SDS011;6454;43.304;24.344;2023-04-06T03:09:21;6.20;;;5.60;;
12780;SDS011;6454;43.304;24.344;2023-04-06T03:11:48;5.77;;;5.20;;
12780;SDS011;6454;43.304;24.344;2023-04-06T03:14:14;6.83;;;6.07;;
12780;SDS011;6454;43.304;24.344;2023-04-06T03:16:42;6.17;;;5.57;;
12780;SDS011;6454;43.304;24.344;2023-04-06T03:19:10;6.43;;;5.60;;
12780;SDS011;6454;43.304;24.344;2023-04-06T03:21:36;7.23;;;5.50;;
12780;SDS011;6454;43.304;24.344;2023-04-06T03:24:05;6.03;;;5.43;;
12780;SDS011;6454;43.304;24.344;2023-04-06T03:26:33;6.43;;;5.80;;
12780;SDS011;6454;43.304;24.344;2023-04-06T03:29:00;7.17;;;6.20;;
12780;SDS011;6454;43.304;24.344;2023-04-06T03:31:27;6.67;;;5.83;;
12780;SDS011;6454;43.304;24.344;2023-04-06T03:33:54;7.03;;;6.33;;
12780;SDS011;6454;43.304;24.344;2023-04-06T03:36:21;5.90;;;5.30;;
12780;SDS011;6454;43.304;24.344;2023-04-06T03:38:47;5.97;;;5.37;;
12780;SDS011;6454;43.304;24.344;2023-04-06T03:41:16;6.27;;;5.67;;
12780;SDS011;6454;43.304;24.344;2023-04-06T03:43:43;7.13;;;5.87;;
12780;SDS011;6454;43.304;24.344;2023-04-06T03:46:10;5.83;;;5.20;;
12780;SDS011;6454;43.304;24.344;2023-04-06T03:48:38;6.97;;;6.17;;
12780;SDS011;6454;43.304;24.344;2023-04-06T03:51:05;6.20;;;5.60;;
12780;SDS011;6454;43.304;24.344;2023-04-06T03:53:31;6.20;;;5.60;;
12780;SDS011;6454;43.304;24.344;2023-04-06T03:55:58;7.23;;;5.40;;
12780;SDS011;6454;43.304;24.344;2023-04-06T03:58:26;6.10;;;5.10;;
12780;SDS011;6454;43.304;24.344;2023-04-06T04:00:53;6.83;;;5.87;;
12780;SDS011;6454;43.304;24.344;2023-04-06T04:03:20;7.10;;;5.87;;
12780;SDS011;6454;43.304;24.344;2023-04-06T04:05:48;6.67;;;5.97;;
12780;SDS011;6454;43.304;24.344;2023-04-06T04:08:16;6.87;;;6.17;;
12780;SDS011;6454;43.304;24.344;2023-04-06T04:10:43;7.17;;;6.47;;
12780;SDS011;6454;43.304;24.344;2023-04-06T04:13:09;6.23;;;5.43;;
12780;SDS011;6454;43.304;24.344;2023-04-06T04:15:38;7.83;;;6.20;;
12780;SDS011;6454;43.304;24.344;2023-04-06T04:18:05;6.07;;;5.00;;
12780;SDS011;6454;43.304;24.344;2023-04-06T04:20:32;7.13;;;5.47;;
12780;SDS011;6454;43.304;24.344;2023-04-06T04:22:59;6.63;;;5.40;;
12780;SDS011;6454;43.304;24.344;2023-04-06T04:25:26;5.90;;;5.30;;
12780;SDS011;6454;43.304;24.344;2023-04-06T04:27:52;5.70;;;5.10;;
12780;SDS011;6454;43.304;24.344;2023-04-06T04:30:19;6.20;;;5.60;;
12780;SDS011;6454;43.304;24.344;2023-04-06T04:32:48;6.13;;;5.53;;
12780;SDS011;6454;43.304;24.344;2023-04-06T04:35:15;6.57;;;5.50;;
12780;SDS011;6454;43.304;24.344;2023-04-06T04:37:42;6.17;;;5.30;;
12780;SDS011;6454;43.304;24.344;2023-04-06T04:40:09;7.03;;;4.93;;
12780;SDS011;6454;43.304;24.344;2023-04-06T04:42:36;6.67;;;5.93;;
12780;SDS011;6454;43.304;24.344;2023-04-06T04:45:04;6.23;;;5.27;;
12780;SDS011;6454;43.304;24.344;2023-04-06T04:47:32;6.70;;;5.73;;
12780;SDS011;6454;43.304;24.344;2023-04-06T04:50:00;7.43;;;5.73;;
12780;SDS011;6454;43.304;24.344;2023-04-06T04:52:27;6.67;;;5.97;;
12780;SDS011;6454;43.304;24.344;2023-04-06T04:54:54;6.20;;;5.53;;
12780;SDS011;6454;43.304;24.344;2023-04-06T04:57:21;5.73;;;5.00;;
12780;SDS011;6454;43.304;24.344;2023-04-06T04:59:48;6.77;;;5.87;;
12780;SDS011;6454;43.304;24.344;2023-04-06T05:02:16;7.70;;;6.13;;
12780;SDS011;6454;43.304;24.344;2023-04-06T05:04:43;6.93;;;5.83;;
12780;SDS011;6454;43.304;24.344;2023-04-06T05:07:11;7.87;;;6.23;;
12780;SDS011;6454;43.304;24.344;2023-04-06T05:09:38;6.17;;;5.10;;
12780;SDS011;6454;43.304;24.344;2023-04-06T05:12:05;7.47;;;6.33;;
12780;SDS011;6454;43.304;24.344;2023-04-06T05:14:32;6.97;;;5.33;;
12780;SDS011;6454;43.304;24.344;2023-04-06T05:16:59;7.77;;;6.27;;
12780;SDS011;6454;43.304;24.344;2023-04-06T05:19:26;6.83;;;5.77;;
12780;SDS011;6454;43.304;24.344;2023-04-06T05:21:53;6.10;;;5.50;;
12780;SDS011;6454;43.304;24.344;2023-04-06T05:24:21;6.97;;;6.03;;
12780;SDS011;6454;43.304;24.344;2023-04-06T05:26:48;9.63;;;6.40;;
12780;SDS011;6454;43.304;24.344;2023-04-06T05:29:16;7.13;;;6.40;;
12780;SDS011;6454;43.304;24.344;2023-04-06T05:31:43;7.37;;;6.47;;
12780;SDS011;6454;43.304;24.344;2023-04-06T05:34:10;7.03;;;6.33;;
12780;SDS011;6454;43.304;24.344;2023-04-06T05:36:37;6.93;;;6.20;;
12780;SDS011;6454;43.304;24.344;2023-04-06T05:39:05;6.97;;;6.27;;
12780;SDS011;6454;43.304;24.344;2023-04-06T05:41:33;6.60;;;5.57;;
12780;SDS011;6454;43.304;24.344;2023-04-06T05:44:00;6.87;;;6.00;;
12780;SDS011;6454;43.304;24.344;2023-04-06T05:46:27;6.53;;;5.77;;
12780;SDS011;6454;43.304;24.344;2023-04-06T05:48:54;8.93;;;6.20;;
12780;SDS011;6454;43.304;24.344;2023-04-06T05:51:21;6.30;;;5.60;;
12780;SDS011;6454;43.304;24.344;2023-04-06T05:53:48;5.77;;;5.27;;
12780;SDS011;6454;43.304;24.344;2023-04-06T05:56:14;9.33;;;5.90;;
12780;SDS011;6454;43.304;24.344;2023-04-06T05:58:43;6.57;;;5.83;;
12780;SDS011;6454;43.304;24.344;2023-04-06T06:01:10;8.07;;;5.43;;
12780;SDS011;6454;43.304;24.344;2023-04-06T06:03:37;7.73;;;5.80;;
12780;SDS011;6454;43.304;24.344;2023-04-06T06:06:04;7.10;;;5.53;;
12780;SDS011;6454;43.304;24.344;2023-04-06T06:08:32;6.13;;;5.53;;
12780;SDS011;6454;43.304;24.344;2023-04-06T06:10:59;6.20;;;5.40;;
12780;SDS011;6454;43.304;24.344;2023-04-06T06:13:26;9.13;;;5.60;;
12780;SDS011;6454;43.304;24.344;2023-04-06T06:15:54;6.93;;;5.13;;
12780;SDS011;6454;43.304;24.344;2023-04-06T06:18:21;8.37;;;5.97;;
12780;SDS011;6454;43.304;24.344;2023-04-06T06:20:48;6.50;;;5.33;;
12780;SDS011;6454;43.304;24.344;2023-04-06T07:11:53;8.50;;;5.20;;
12780;SDS011;6454;43.304;24.344;2023-04-06T07:14:21;8.30;;;5.70;;
12780;SDS011;6454;43.304;24.344;2023-04-06T07:16:51;6.03;;;5.00;;
12780;SDS011;6454;43.304;24.344;2023-04-06T07:19:18;7.30;;;5.33;;
12780;SDS011;6454;43.304;24.344;2023-04-06T07:21:45;6.85;;;4.78;;
12780;SDS011;6454;43.304;24.344;2023-04-06T07:24:14;6.53;;;5.47;;
12780;SDS011;6454;43.304;24.344;2023-04-06T07:26:41;5.60;;;5.00;;
12780;SDS011;6454;43.304;24.344;2023-04-06T07:29:10;6.93;;;5.47;;
12780;SDS011;6454;43.304;24.344;2023-04-06T07:31:37;7.30;;;5.13;;
12780;SDS011;6454;43.304;24.344;2023-04-06T07:34:04;6.97;;;5.13;;
12780;SDS011;6454;43.304;24.344;2023-04-06T07:36:31;5.13;;;4.63;;
12780;SDS011;6454;43.304;24.344;2023-04-06T07:38:58;5.10;;;4.60;;
12780;SDS011;6454;43.304;24.344;2023-04-06T07:41:25;7.43;;;4.87;;
12780;SDS011;6454;43.304;24.344;2023-04-06T07:43:52;6.30;;;4.63;;
12780;SDS011;6454;43.304;24.344;2023-04-06T07:46:20;5.53;;;4.70;;
12780;SDS011;6454;43.304;24.344;2023-04-06T07:48:47;4.87;;;4.27;;
12780;SDS011;6454;43.304;24.344;2023-04-06T07:51:15;5.20;;;4.60;;
12780;SDS011;6454;43.304;24.344;2023-04-06T07:53:43;5.57;;;4.80;;
12780;SDS011;6454;43.304;24.344;2023-04-06T07:56:10;6.22;;;4.40;;
12780;SDS011;6454;43.304;24.344;2023-04-06T07:58:37;5.45;;;4.40;;
12780;SDS011;6454;43.304;24.344;2023-04-06T08:01:04;5.20;;;4.70;;
12780;SDS011;6454;43.304;24.344;2023-04-06T08:03:34;5.55;;;5.05;;
12780;SDS011;6454;43.304;24.344;2023-04-06T08:06:01;6.35;;;4.53;;
12780;SDS011;6454;43.304;24.344;2023-04-06T08:08:29;5.53;;;4.80;;
12780;SDS011;6454;43.304;24.344;2023-04-06T08:10:56;6.63;;;5.13;;
12780;SDS011;6454;43.304;24.344;2023-04-06T08:13:22;5.53;;;4.70;;
12780;SDS011;6454;43.304;24.344;2023-04-06T08:15:50;5.95;;;5.32;;
12780;SDS011;6454;43.304;24.344;2023-04-06T08:18:18;5.00;;;4.32;;
12780;SDS011;6454;43.304;24.344;2023-04-06T08:20:47;4.43;;;4.03;;
12780;SDS011;6454;43.304;24.344;2023-04-06T08:23:14;4.60;;;4.13;;
12780;SDS011;6454;43.304;24.344;2023-04-06T08:25:41;5.20;;;4.63;;
12780;SDS011;6454;43.304;24.344;2023-04-06T08:28:08;5.47;;;4.63;;
12780;SDS011;6454;43.304;24.344;2023-04-06T08:30:35;5.35;;;4.85;;
12780;SDS011;6454;43.304;24.344;2023-04-06T08:33:02;5.50;;;4.45;;
12780;SDS011;6454;43.304;24.344;2023-04-06T08:35:29;6.15;;;4.72;;
12780;SDS011;6454;43.304;24.344;2023-04-06T08:37:57;6.18;;;4.78;;
12780;SDS011;6454;43.304;24.344;2023-04-06T08:40:24;5.82;;;4.75;;
12780;SDS011;6454;43.304;24.344;2023-04-06T08:42:52;5.40;;;4.45;;
12780;SDS011;6454;43.304;24.344;2023-04-06T08:45:21;5.63;;;4.53;;
12780;SDS011;6454;43.304;24.344;2023-04-06T08:47:49;5.68;;;4.70;;
12780;SDS011;6454;43.304;24.344;2023-04-06T08:50:17;5.78;;;4.55;;
12780;SDS011;6454;43.304;24.344;2023-04-06T08:52:44;7.57;;;5.03;;
12780;SDS011;6454;43.304;24.344;2023-04-06T08:55:15;5.90;;;4.38;;
12780;SDS011;6454;43.304;24.344;2023-04-06T08:57:42;5.65;;;4.82;;
12780;SDS011;6454;43.304;24.344;2023-04-06T09:00:11;5.50;;;4.47;;
12780;SDS011;6454;43.304;24.344;2023-04-06T09:02:39;4.70;;;4.30;;
12780;SDS011;6454;43.304;24.344;2023-04-06T09:05:08;5.50;;;4.57;;
12780;SDS011;6454;43.304;24.344;2023-04-06T09:07:36;5.63;;;4.60;;
12780;SDS011;6454;43.304;24.344;2023-04-06T09:22:36;4.20;;;3.80;;
12780;SDS011;6454;43.304;24.344;2023-04-06T09:25:04;4.45;;;3.40;;
12780;SDS011;6454;43.304;24.344;2023-04-06T09:27:32;4.72;;;3.53;;
12780;SDS011;6454;43.304;24.344;2023-04-06T09:30:04;4.30;;;3.60;;
12780;SDS011;6454;43.304;24.344;2023-04-06T09:32:32;5.22;;;3.63;;
12780;SDS011;6454;43.304;24.344;2023-04-06T09:35:10;4.10;;;3.50;;
12780;SDS011;6454;43.304;24.344;2023-04-06T09:37:38;4.00;;;3.28;;
12780;SDS011;6454;43.304;24.344;2023-04-06T09:40:06;3.80;;;3.25;;
12780;SDS011;6454;43.304;24.344;2023-04-06T09:42:34;3.55;;;3.25;;
12780;SDS011;6454;43.304;24.344;2023-04-06T09:45:01;4.45;;;3.38;;
12780;SDS011;6454;43.304;24.344;2023-04-06T09:47:28;3.53;;;3.17;;
12780;SDS011;6454;43.304;24.344;2023-04-06T09:49:57;4.15;;;3.00;;
12780;SDS011;6454;43.304;24.344;2023-04-06T09:52:26;5.32;;;3.30;;
12780;SDS011;6454;43.304;24.344;2023-04-06T09:54:58;7.20;;;3.47;;
12780;SDS011;6454;43.304;24.344;2023-04-06T09:57:30;3.30;;;2.90;;
12780;SDS011;6454;43.304;24.344;2023-04-06T10:00:02;3.33;;;3.03;;
12780;SDS011;6454;43.304;24.344;2023-04-06T10:02:35;5.72;;;3.53;;
12780;SDS011;6454;43.304;24.344;2023-04-06T10:05:18;5.35;;;3.22;;
12780;SDS011;6454;43.304;24.344;2023-04-06T10:07:49;4.18;;;3.28;;
12780;SDS011;6454;43.304;24.344;2023-04-06T10:10:21;4.03;;;3.10;;
12780;SDS011;6454;43.304;24.344;2023-04-06T10:12:48;4.15;;;2.85;;
12780;SDS011;6454;43.304;24.344;2023-04-06T10:15:15;6.22;;;3.17;;
12780;SDS011;6454;43.304;24.344;2023-04-06T10:17:43;3.75;;;3.35;;
12780;SDS011;6454;43.304;24.344;2023-04-06T10:20:11;5.72;;;3.30;;
12780;SDS011;6454;43.304;24.344;2023-04-06T10:22:43;5.32;;;3.50;;
12780;SDS011;6454;43.304;24.344;2023-04-06T10:25:27;3.33;;;2.90;;
12780;SDS011;6454;43.304;24.344;2023-04-06T10:28:01;5.55;;;3.75;;
12780;SDS011;6454;43.304;24.344;2023-04-06T10:30:31;4.18;;;3.10;;
12780;SDS011;6454;43.304;24.344;2023-04-06T10:32:59;4.47;;;3.40;;
12780;SDS011;6454;43.304;24.344;2023-04-06T10:35:35;4.68;;;3.38;;
12780;SDS011;6454;43.304;24.344;2023-04-06T10:38:03;5.68;;;3.20;;
12780;SDS011;6454;43.304;24.344;2023-04-06T10:40:35;3.65;;;3.33;;
12780;SDS011;6454;43.304;24.344;2023-04-06T10:43:09;5.05;;;3.60;;
12780;SDS011;6454;43.304;24.344;2023-04-06T10:45:38;4.22;;;3.17;;
12780;SDS011;6454;43.304;24.344;2023-04-06T10:48:13;3.88;;;2.95;;
12780;SDS011;6454;43.304;24.344;2023-04-06T10:50:41;4.75;;;3.65;;
12780;SDS011;6454;43.304;24.344;2023-04-06T10:53:08;4.68;;;3.53;;
12780;SDS011;6454;43.304;24.344;2023-04-06T10:55:38;4.88;;;3.65;;
12780;SDS011;6454;43.304;24.344;2023-04-06T10:58:06;5.50;;;3.28;;
12780;SDS011;6454;43.304;24.344;2023-04-06T11:00:33;6.85;;;3.13;;
12780;SDS011;6454;43.304;24.344;2023-04-06T11:03:01;4.45;;;3.38;;
12780;SDS011;6454;43.304;24.344;2023-04-06T11:05:28;5.20;;;3.55;;
12780;SDS011;6454;43.304;24.344;2023-04-06T11:07:55;4.57;;;3.80;;
12780;SDS011;6454;43.304;24.344;2023-04-06T11:10:22;4.93;;;3.33;;
12780;SDS011;6454;43.304;24.344;2023-04-06T11:12:53;4.57;;;3.28;;
12780;SDS011;6454;43.304;24.344;2023-04-06T11:15:21;4.72;;;4.18;;
12780;SDS011;6454;43.304;24.344;2023-04-06T11:17:48;7.43;;;3.75;;
12780;SDS011;6454;43.304;24.344;2023-04-06T11:20:16;5.40;;;3.28;;
12780;SDS011;6454;43.304;24.344;2023-04-06T11:22:48;4.28;;;3.88;;
12780;SDS011;6454;43.304;24.344;2023-04-06T11:25:16;5.28;;;4.03;;
12780;SDS011;6454;43.304;24.344;2023-04-06T11:27:43;5.95;;;3.40;;
12780;SDS011;6454;43.304;24.344;2023-04-06T11:30:13;4.13;;;3.70;;
12780;SDS011;6454;43.304;24.344;2023-04-06T11:32:41;4.90;;;3.30;;
12780;SDS011;6454;43.304;24.344;2023-04-06T11:35:19;4.93;;;3.40;;
12780;SDS011;6454;43.304;24.344;2023-04-06T11:37:47;5.05;;;3.60;;
12780;SDS011;6454;43.304;24.344;2023-04-06T11:40:15;4.72;;;3.45;;
12780;SDS011;6454;43.304;24.344;2023-04-06T11:42:52;4.04;;;3.63;;
12780;SDS011;6454;43.304;24.344;2023-04-06T11:45:40;3.95;;;3.43;;
12780;SDS011;6454;43.304;24.344;2023-04-06T11:48:23;4.28;;;3.37;;
12780;SDS011;6454;43.304;24.344;2023-04-06T11:50:55;4.28;;;3.22;;
12780;SDS011;6454;43.304;24.344;2023-04-06T11:53:22;4.97;;;3.28;;
12780;SDS011;6454;43.304;24.344;2023-04-06T11:55:52;4.75;;;3.78;;
12780;SDS011;6454;43.304;24.344;2023-04-06T11:58:29;4.53;;;3.53;;
12780;SDS011;6454;43.304;24.344;2023-04-06T12:01:04;5.60;;;3.60;;
12780;SDS011;6454;43.304;24.344;2023-04-06T12:03:31;5.22;;;3.70;;
12780;SDS011;6454;43.304;24.344;2023-04-06T12:05:58;4.22;;;3.50;;
12780;SDS011;6454;43.304;24.344;2023-04-06T12:08:25;4.00;;;3.55;;
12780;SDS011;6454;43.304;24.344;2023-04-06T12:10:52;5.70;;;4.35;;
12780;SDS011;6454;43.304;24.344;2023-04-06T12:13:18;3.90;;;3.20;;
12780;SDS011;6454;43.304;24.344;2023-04-06T12:15:45;5.43;;;3.53;;
12780;SDS011;6454;43.304;24.344;2023-04-06T12:18:14;4.10;;;3.47;;
12780;SDS011;6454;43.304;24.344;2023-04-06T12:20:40;4.18;;;2.90;;
12780;SDS011;6454;43.304;24.344;2023-04-06T12:23:08;4.10;;;3.13;;
12780;SDS011;6454;43.304;24.344;2023-04-06T12:25:35;6.07;;;3.53;;
12780;SDS011;6454;43.304;24.344;2023-04-06T12:28:02;4.32;;;3.80;;
12780;SDS011;6454;43.304;24.344;2023-04-06T12:30:29;5.60;;;3.75;;
12780;SDS011;6454;43.304;24.344;2023-04-06T12:32:57;6.28;;;3.80;;
12780;SDS011;6454;43.304;24.344;2023-04-06T12:35:25;4.05;;;2.90;;
12780;SDS011;6454;43.304;24.344;2023-04-06T12:37:53;3.92;;;3.42;;
12780;SDS011;6454;43.304;24.344;2023-04-06T12:40:19;5.82;;;3.58;;
12780;SDS011;6454;43.304;24.344;2023-04-06T12:42:46;3.63;;;3.10;;
12780;SDS011;6454;43.304;24.344;2023-04-06T12:45:13;3.88;;;3.47;;
12780;SDS011;6454;43.304;24.344;2023-04-06T12:47:40;3.55;;;3.10;;
12780;SDS011;6454;43.304;24.344;2023-04-06T12:50:07;4.28;;;3.38;;
12780;SDS011;6454;43.304;24.344;2023-04-06T12:52:36;5.13;;;3.47;;
12780;SDS011;6454;43.304;24.344;2023-04-06T12:55:03;6.60;;;3.88;;
12780;SDS011;6454;43.304;24.344;2023-04-06T12:57:31;3.47;;;3.17;;
12780;SDS011;6454;43.304;24.344;2023-04-06T12:59:58;4.53;;;3.50;;
12780;SDS011;6454;43.304;24.344;2023-04-06T13:02:25;3.47;;;3.03;;
12780;SDS011;6454;43.304;24.344;2023-04-06T13:04:52;3.60;;;3.15;;
12780;SDS011;6454;43.304;24.344;2023-04-06T13:07:19;3.95;;;3.55;;
12780;SDS011;6454;43.304;24.344;2023-04-06T13:09:48;5.68;;;3.60;;
12780;SDS011;6454;43.304;24.344;2023-04-06T13:12:15;4.25;;;3.22;;
12780;SDS011;6454;43.304;24.344;2023-04-06T13:14:42;3.10;;;2.78;;
12780;SDS011;6454;43.304;24.344;2023-04-06T13:17:09;3.53;;;2.90;;
12780;SDS011;6454;43.304;24.344;2023-04-06T13:19:36;6.07;;;3.50;;
12780;SDS011;6454;43.304;24.344;2023-04-06T13:22:03;4.05;;;3.10;;
12780;SDS011;6454;43.304;24.344;2023-04-06T13:24:30;4.57;;;3.25;;
12780;SDS011;6454;43.304;24.344;2023-04-06T13:26:58;4.18;;;3.42;;
12780;SDS011;6454;43.304;24.344;2023-04-06T13:29:25;4.85;;;3.45;;
12780;SDS011;6454;43.304;24.344;2023-04-06T13:31:52;4.90;;;3.30;;
12780;SDS011;6454;43.304;24.344;2023-04-06T13:34:19;6.10;;;3.92;;
12780;SDS011;6454;43.304;24.344;2023-04-06T13:36:46;6.95;;;3.80;;
12780;SDS011;6454;43.304;24.344;2023-04-06T13:39:13;3.80;;;3.25;;
12780;SDS011;6454;43.304;24.344;2023-04-06T13:41:40;3.65;;;3.17;;
12780;SDS011;6454;43.304;24.344;2023-04-06T13:44:08;4.60;;;3.63;;
12780;SDS011;6454;43.304;24.344;2023-04-06T13:46:35;3.85;;;3.28;;
12780;SDS011;6454;43.304;24.344;2023-04-06T13:49:02;4.72;;;3.38;;
12780;SDS011;6454;43.304;24.344;2023-04-06T13:51:29;3.70;;;3.30;;
12780;SDS011;6454;43.304;24.344;2023-04-06T13:53:56;4.55;;;3.20;;
12780;SDS011;6454;43.304;24.344;2023-04-06T13:56:23;4.63;;;3.25;;
12780;SDS011;6454;43.304;24.344;2023-04-06T13:58:50;4.32;;;2.90;;
12780;SDS011;6454;43.304;24.344;2023-04-06T14:01:22;3.75;;;2.83;;
12780;SDS011;6454;43.304;24.344;2023-04-06T14:03:51;3.53;;;3.17;;
12780;SDS011;6454;43.304;24.344;2023-04-06T14:06:18;3.30;;;3.00;;
12780;SDS011;6454;43.304;24.344;2023-04-06T14:08:45;4.07;;;3.30;;
12780;SDS011;6454;43.304;24.344;2023-04-06T14:11:12;4.47;;;3.83;;
12780;SDS011;6454;43.304;24.344;2023-04-06T14:13:39;4.05;;;3.30;;
12780;SDS011;6454;43.304;24.344;2023-04-06T14:16:06;5.50;;;3.90;;
12780;SDS011;6454;43.304;24.344;2023-04-06T14:18:35;4.38;;;3.80;;
12780;SDS011;6454;43.304;24.344;2023-04-06T14:21:03;4.15;;;3.40;;
12780;SDS011;6454;43.304;24.344;2023-04-06T14:23:30;6.13;;;4.13;;
12780;SDS011;6454;43.304;24.344;2023-04-06T14:26:01;4.78;;;3.67;;
12780;SDS011;6454;43.304;24.344;2023-04-06T14:28:29;5.68;;;3.75;;
12780;SDS011;6454;43.304;24.344;2023-04-06T14:30:56;4.25;;;3.55;;
12780;SDS011;6454;43.304;24.344;2023-04-06T14:33:23;5.40;;;4.05;;
12780;SDS011;6454;43.304;24.344;2023-04-06T14:35:51;5.85;;;4.60;;
12780;SDS011;6454;43.304;24.344;2023-04-06T14:38:18;6.05;;;4.45;;
12780;SDS011;6454;43.304;24.344;2023-04-06T14:40:45;4.90;;;4.25;;
12780;SDS011;6454;43.304;24.344;2023-04-06T14:43:12;4.88;;;4.15;;
12780;SDS011;6454;43.304;24.344;2023-04-06T14:45:40;7.88;;;4.55;;
12780;SDS011;6454;43.304;24.344;2023-04-06T14:48:07;5.28;;;4.78;;
12780;SDS011;6454;43.304;24.344;2023-04-06T14:50:36;5.47;;;4.95;;
12780;SDS011;6454;43.304;24.344;2023-04-06T14:53:05;5.22;;;4.72;;
12780;SDS011;6454;43.304;24.344;2023-04-06T14:55:32;5.60;;;4.90;;
12780;SDS011;6454;43.304;24.344;2023-04-06T14:57:59;7.65;;;5.30;;
12780;SDS011;6454;43.304;24.344;2023-04-06T15:00:26;6.22;;;5.40;;
12780;SDS011;6454;43.304;24.344;2023-04-06T15:02:53;6.68;;;5.40;;
12780;SDS011;6454;43.304;24.344;2023-04-06T15:05:20;6.70;;;5.25;;
12780;SDS011;6454;43.304;24.344;2023-04-06T15:07:47;7.60;;;5.40;;
12780;SDS011;6454;43.304;24.344;2023-04-06T15:10:15;6.00;;;5.40;;
12780;SDS011;6454;43.304;24.344;2023-04-06T15:12:42;7.35;;;5.43;;
12780;SDS011;6454;43.304;24.344;2023-04-06T15:15:09;6.50;;;5.72;;
12780;SDS011;6454;43.304;24.344;2023-04-06T15:17:36;6.00;;;5.40;;
12780;SDS011;6454;43.304;24.344;2023-04-06T15:20:03;5.55;;;5.03;;
12780;SDS011;6454;43.304;24.344;2023-04-06T15:22:31;5.82;;;5.22;;
12780;SDS011;6454;43.304;24.344;2023-04-06T15:24:58;7.07;;;4.95;;
12780;SDS011;6454;43.304;24.344;2023-04-06T15:27:26;7.03;;;5.30;;
12780;SDS011;6454;43.304;24.344;2023-04-06T15:29:53;5.65;;;5.05;;
12780;SDS011;6454;43.304;24.344;2023-04-06T15:32:20;6.32;;;4.90;;
12780;SDS011;6454;43.304;24.344;2023-04-06T15:34:46;5.82;;;5.22;;
12780;SDS011;6454;43.304;24.344;2023-04-06T15:37:13;6.38;;;5.65;;
12780;SDS011;6454;43.304;24.344;2023-04-06T15:39:40;6.03;;;5.15;;
12780;SDS011;6454;43.304;24.344;2023-04-06T15:42:07;5.85;;;5.30;;
12780;SDS011;6454;43.304;24.344;2023-04-06T15:44:36;6.00;;;4.93;;
12780;SDS011;6454;43.304;24.344;2023-04-06T15:47:03;6.05;;;5.18;;
12780;SDS011;6454;43.304;24.344;2023-04-06T15:49:30;7.30;;;5.55;;
12780;SDS011;6454;43.304;24.344;2023-04-06T15:51:57;6.72;;;5.30;;